sensor_id;sensor_type;location;lat;lon;timestamp;P1;durP1;ratioP1;P2;durP2;ratioP2
42964;SDS011;28604;51.204;22.552;2023-05-23T00:01:50;17.05;;;9.32;;
42964;SDS011;28604;51.204;22.552;2023-05-23T00:04:19;19.10;;;9.77;;
42964;SDS011;28604;51.204;22.552;2023-05-23T00:06:45;17.67;;;9.18;;
42964;SDS011;28604;51.204;22.552;2023-05-23T00:09:17;15.75;;;8.30;;
42964;SDS011;28604;51.204;22.552;2023-05-23T00:11:43;23.98;;;9.77;;
42964;SDS011;28604;51.204;22.552;2023-05-23T00:14:15;14.13;;;9.48;;
42964;SDS011;28604;51.204;22.552;2023-05-23T00:16:43;18.95;;;9.48;;
42964;SDS011;28604;51.204;22.552;2023-05-23T00:19:09;16.17;;;9.43;;
42964;SDS011;28604;51.204;22.552;2023-05-23T00:24:15;16.35;;;10.45;;
42964;SDS011;28604;51.204;22.552;2023-05-23T00:26:45;19.27;;;9.27;;
42964;SDS011;28604;51.204;22.552;2023-05-23T00:29:11;21.95;;;10.35;;
42964;SDS011;28604;51.204;22.552;2023-05-23T00:31:41;18.08;;;9.80;;
42964;SDS011;28604;51.204;22.552;2023-05-23T00:34:13;16.70;;;9.90;;
42964;SDS011;28604;51.204;22.552;2023-05-23T00:36:42;20.23;;;10.07;;
42964;SDS011;28604;51.204;22.552;2023-05-23T00:39:12;27.50;;;10.70;;
42964;SDS011;28604;51.204;22.552;2023-05-23T00:41:44;25.60;;;10.48;;
42964;SDS011;28604;51.204;22.552;2023-05-23T00:44:14;27.58;;;9.93;;
42964;SDS011;28604;51.204;22.552;2023-05-23T00:46:40;22.15;;;11.43;;
42964;SDS011;28604;51.204;22.552;2023-05-23T00:49:08;22.27;;;11.30;;
42964;SDS011;28604;51.204;22.552;2023-05-23T00:54:17;21.65;;;10.90;;
42964;SDS011;28604;51.204;22.552;2023-05-23T00:56:48;20.08;;;11.10;;
42964;SDS011;28604;51.204;22.552;2023-05-23T00:59:14;23.23;;;10.85;;
42964;SDS011;28604;51.204;22.552;2023-05-23T01:01:40;18.80;;;11.15;;
42964;SDS011;28604;51.204;22.552;2023-05-23T01:04:11;20.48;;;10.63;;
42964;SDS011;28604;51.204;22.552;2023-05-23T01:06:38;16.63;;;10.45;;
42964;SDS011;28604;51.204;22.552;2023-05-23T01:09:04;24.38;;;10.43;;
42964;SDS011;28604;51.204;22.552;2023-05-23T01:11:49;15.98;;;10.70;;
42964;SDS011;28604;51.204;22.552;2023-05-23T01:14:34;25.02;;;10.82;;
42964;SDS011;28604;51.204;22.552;2023-05-23T01:17:17;21.00;;;10.98;;
42964;SDS011;28604;51.204;22.552;2023-05-23T01:19:58;18.50;;;9.85;;
42964;SDS011;28604;51.204;22.552;2023-05-23T01:22:35;27.45;;;11.70;;
42964;SDS011;28604;51.204;22.552;2023-05-23T01:28:04;18.98;;;10.52;;
42964;SDS011;28604;51.204;22.552;2023-05-23T01:30:31;19.67;;;10.77;;
42964;SDS011;28604;51.204;22.552;2023-05-23T01:33:02;23.20;;;10.82;;
42964;SDS011;28604;51.204;22.552;2023-05-23T01:35:29;22.23;;;9.18;;
42964;SDS011;28604;51.204;22.552;2023-05-23T01:37:57;20.17;;;10.25;;
42964;SDS011;28604;51.204;22.552;2023-05-23T01:40:23;22.65;;;10.40;;
42964;SDS011;28604;51.204;22.552;2023-05-23T01:42:50;21.58;;;10.23;;
42964;SDS011;28604;51.204;22.552;2023-05-23T01:45:17;20.75;;;9.65;;
42964;SDS011;28604;51.204;22.552;2023-05-23T01:47:45;19.40;;;10.13;;
42964;SDS011;28604;51.204;22.552;2023-05-23T01:50:14;23.67;;;10.98;;
42964;SDS011;28604;51.204;22.552;2023-05-23T01:52:40;23.25;;;10.60;;
42964;SDS011;28604;51.204;22.552;2023-05-23T01:55:07;15.55;;;10.25;;
42964;SDS011;28604;51.204;22.552;2023-05-23T01:57:35;19.40;;;10.13;;
42964;SDS011;28604;51.204;22.552;2023-05-23T02:00:06;25.08;;;11.85;;
42964;SDS011;28604;51.204;22.552;2023-05-23T02:02:39;21.02;;;11.38;;
42964;SDS011;28604;51.204;22.552;2023-05-23T02:05:08;21.52;;;10.35;;
42964;SDS011;28604;51.204;22.552;2023-05-23T02:07:35;20.88;;;10.82;;
42964;SDS011;28604;51.204;22.552;2023-05-23T02:10:02;22.17;;;10.50;;
42964;SDS011;28604;51.204;22.552;2023-05-23T02:12:29;15.52;;;9.77;;
42964;SDS011;28604;51.204;22.552;2023-05-23T02:14:57;22.38;;;9.73;;
42964;SDS011;28604;51.204;22.552;2023-05-23T02:17:23;26.98;;;10.30;;
42964;SDS011;28604;51.204;22.552;2023-05-23T02:19:49;16.45;;;10.10;;
42964;SDS011;28604;51.204;22.552;2023-05-23T02:22:15;28.10;;;10.00;;
42964;SDS011;28604;51.204;22.552;2023-05-23T02:24:41;18.70;;;10.40;;
42964;SDS011;28604;51.204;22.552;2023-05-23T02:27:07;17.50;;;10.48;;
42964;SDS011;28604;51.204;22.552;2023-05-23T02:29:33;21.58;;;9.98;;
42964;SDS011;28604;51.204;22.552;2023-05-23T02:31:59;15.52;;;9.77;;
42964;SDS011;28604;51.204;22.552;2023-05-23T02:34:25;18.92;;;10.15;;
42964;SDS011;28604;51.204;22.552;2023-05-23T02:36:51;21.67;;;10.32;;
42964;SDS011;28604;51.204;22.552;2023-05-23T02:39:16;23.73;;;10.60;;
42964;SDS011;28604;51.204;22.552;2023-05-23T02:41:45;21.50;;;11.15;;
42964;SDS011;28604;51.204;22.552;2023-05-23T02:44:10;22.73;;;11.27;;
42964;SDS011;28604;51.204;22.552;2023-05-23T02:46:37;19.52;;;10.35;;
42964;SDS011;28604;51.204;22.552;2023-05-23T02:49:03;20.70;;;11.02;;
42964;SDS011;28604;51.204;22.552;2023-05-23T02:51:29;27.45;;;11.50;;
42964;SDS011;28604;51.204;22.552;2023-05-23T02:53:56;22.52;;;11.10;;
42964;SDS011;28604;51.204;22.552;2023-05-23T02:56:22;21.17;;;10.60;;
42964;SDS011;28604;51.204;22.552;2023-05-23T02:58:48;30.42;;;12.57;;
42964;SDS011;28604;51.204;22.552;2023-05-23T03:01:14;25.77;;;12.68;;
42964;SDS011;28604;51.204;22.552;2023-05-23T03:03:40;28.17;;;12.77;;
42964;SDS011;28604;51.204;22.552;2023-05-23T03:06:07;23.88;;;12.77;;
42964;SDS011;28604;51.204;22.552;2023-05-23T03:08:35;19.60;;;11.85;;
42964;SDS011;28604;51.204;22.552;2023-05-23T03:11:01;23.58;;;11.68;;
42964;SDS011;28604;51.204;22.552;2023-05-23T03:13:27;24.33;;;12.38;;
42964;SDS011;28604;51.204;22.552;2023-05-23T03:15:55;27.30;;;13.02;;
42964;SDS011;28604;51.204;22.552;2023-05-23T03:18:20;22.85;;;11.90;;
42964;SDS011;28604;51.204;22.552;2023-05-23T03:20:46;21.80;;;11.75;;
42964;SDS011;28604;51.204;22.552;2023-05-23T03:23:12;28.60;;;12.65;;
42964;SDS011;28604;51.204;22.552;2023-05-23T03:25:38;22.67;;;12.55;;
42964;SDS011;28604;51.204;22.552;2023-05-23T03:28:04;28.70;;;12.15;;
42964;SDS011;28604;51.204;22.552;2023-05-23T03:30:30;25.20;;;12.65;;
42964;SDS011;28604;51.204;22.552;2023-05-23T03:32:56;22.33;;;11.60;;
42964;SDS011;28604;51.204;22.552;2023-05-23T03:35:22;21.08;;;11.55;;
42964;SDS011;28604;51.204;22.552;2023-05-23T03:37:48;22.02;;;11.60;;
42964;SDS011;28604;51.204;22.552;2023-05-23T03:40:14;31.65;;;11.90;;
42964;SDS011;28604;51.204;22.552;2023-05-23T03:42:40;26.23;;;12.30;;
42964;SDS011;28604;51.204;22.552;2023-05-23T03:45:08;21.83;;;11.05;;
42964;SDS011;28604;51.204;22.552;2023-05-23T03:47:34;20.80;;;11.38;;
42964;SDS011;28604;51.204;22.552;2023-05-23T03:50:01;31.88;;;11.35;;
42964;SDS011;28604;51.204;22.552;2023-05-23T03:52:28;18.83;;;11.10;;
42964;SDS011;28604;51.204;22.552;2023-05-23T03:54:54;16.23;;;9.57;;
42964;SDS011;28604;51.204;22.552;2023-05-23T03:57:20;18.30;;;11.27;;
42964;SDS011;28604;51.204;22.552;2023-05-23T03:59:49;21.27;;;10.90;;
42964;SDS011;28604;51.204;22.552;2023-05-23T04:02:15;17.45;;;9.77;;
42964;SDS011;28604;51.204;22.552;2023-05-23T04:04:41;23.50;;;11.10;;
42964;SDS011;28604;51.204;22.552;2023-05-23T04:07:08;18.98;;;10.93;;
42964;SDS011;28604;51.204;22.552;2023-05-23T04:09:36;20.42;;;10.13;;
42964;SDS011;28604;51.204;22.552;2023-05-23T04:12:04;22.27;;;10.68;;
42964;SDS011;28604;51.204;22.552;2023-05-23T04:14:33;23.40;;;11.73;;
42964;SDS011;28604;51.204;22.552;2023-05-23T04:16:59;20.73;;;10.52;;
42964;SDS011;28604;51.204;22.552;2023-05-23T04:19:26;22.40;;;9.15;;
42964;SDS011;28604;51.204;22.552;2023-05-23T04:21:52;25.25;;;10.10;;
42964;SDS011;28604;51.204;22.552;2023-05-23T04:24:18;14.27;;;8.48;;
42964;SDS011;28604;51.204;22.552;2023-05-23T04:26:45;16.58;;;8.25;;
42964;SDS011;28604;51.204;22.552;2023-05-23T04:29:11;13.23;;;7.78;;
42964;SDS011;28604;51.204;22.552;2023-05-23T04:31:37;17.45;;;7.72;;
42964;SDS011;28604;51.204;22.552;2023-05-23T04:34:03;12.13;;;7.28;;
42964;SDS011;28604;51.204;22.552;2023-05-23T04:36:33;13.07;;;6.70;;
42964;SDS011;28604;51.204;22.552;2023-05-23T04:39:03;10.30;;;6.55;;
42964;SDS011;28604;51.204;22.552;2023-05-23T04:41:32;17.17;;;6.35;;
42964;SDS011;28604;51.204;22.552;2023-05-23T04:44:14;9.05;;;5.20;;
42964;SDS011;28604;51.204;22.552;2023-05-23T04:46:46;22.40;;;7.07;;
42964;SDS011;28604;51.204;22.552;2023-05-23T04:49:16;13.68;;;5.22;;
42964;SDS011;28604;51.204;22.552;2023-05-23T04:51:42;14.10;;;6.13;;
42964;SDS011;28604;51.204;22.552;2023-05-23T04:54:22;13.18;;;6.03;;
42964;SDS011;28604;51.204;22.552;2023-05-23T04:56:47;11.45;;;5.38;;
42964;SDS011;28604;51.204;22.552;2023-05-23T04:59:19;14.18;;;5.80;;
42964;SDS011;28604;51.204;22.552;2023-05-23T05:01:45;11.57;;;5.40;;
42964;SDS011;28604;51.204;22.552;2023-05-23T05:04:12;11.70;;;5.05;;
42964;SDS011;28604;51.204;22.552;2023-05-23T05:06:39;10.95;;;5.70;;
42964;SDS011;28604;51.204;22.552;2023-05-23T05:09:05;11.48;;;5.03;;
42964;SDS011;28604;51.204;22.552;2023-05-23T05:11:31;7.78;;;4.95;;
42964;SDS011;28604;51.204;22.552;2023-05-23T05:13:57;10.32;;;5.07;;
42964;SDS011;28604;51.204;22.552;2023-05-23T05:16:24;14.00;;;5.45;;
42964;SDS011;28604;51.204;22.552;2023-05-23T05:18:50;8.60;;;5.00;;
42964;SDS011;28604;51.204;22.552;2023-05-23T05:21:17;9.75;;;4.25;;
42964;SDS011;28604;51.204;22.552;2023-05-23T05:23:43;9.68;;;4.78;;
42964;SDS011;28604;51.204;22.552;2023-05-23T05:26:09;11.88;;;4.82;;
42964;SDS011;28604;51.204;22.552;2023-05-23T05:28:36;9.40;;;5.07;;
42964;SDS011;28604;51.204;22.552;2023-05-23T05:31:03;8.85;;;4.95;;
42964;SDS011;28604;51.204;22.552;2023-05-23T05:33:32;8.55;;;4.97;;
42964;SDS011;28604;51.204;22.552;2023-05-23T05:36:11;36.40;;;7.40;;
42964;SDS011;28604;51.204;22.552;2023-05-23T05:38:37;13.18;;;6.70;;
42964;SDS011;28604;51.204;22.552;2023-05-23T05:41:03;11.25;;;6.75;;
42964;SDS011;28604;51.204;22.552;2023-05-23T05:43:34;16.60;;;7.25;;
42964;SDS011;28604;51.204;22.552;2023-05-23T05:46:00;16.77;;;6.70;;
42964;SDS011;28604;51.204;22.552;2023-05-23T05:48:27;11.52;;;5.43;;
42964;SDS011;28604;51.204;22.552;2023-05-23T05:50:55;17.70;;;5.05;;
42964;SDS011;28604;51.204;22.552;2023-05-23T05:53:21;8.52;;;5.30;;
42964;SDS011;28604;51.204;22.552;2023-05-23T05:55:47;8.32;;;4.22;;
42964;SDS011;28604;51.204;22.552;2023-05-23T05:58:14;7.18;;;3.50;;
42964;SDS011;28604;51.204;22.552;2023-05-23T06:00:50;11.30;;;3.70;;
42964;SDS011;28604;51.204;22.552;2023-05-23T06:03:19;6.05;;;3.63;;
42964;SDS011;28604;51.204;22.552;2023-05-23T06:05:51;8.95;;;3.97;;
42964;SDS011;28604;51.204;22.552;2023-05-23T06:08:17;8.88;;;4.03;;
42964;SDS011;28604;51.204;22.552;2023-05-23T06:10:43;9.25;;;4.00;;
42964;SDS011;28604;51.204;22.552;2023-05-23T06:13:09;11.00;;;3.42;;
42964;SDS011;28604;51.204;22.552;2023-05-23T06:15:37;8.55;;;3.92;;
42964;SDS011;28604;51.204;22.552;2023-05-23T06:18:03;9.82;;;4.15;;
42964;SDS011;28604;51.204;22.552;2023-05-23T06:20:30;15.00;;;4.28;;
42964;SDS011;28604;51.204;22.552;2023-05-23T06:22:58;9.15;;;4.35;;
42964;SDS011;28604;51.204;22.552;2023-05-23T06:25:26;11.90;;;4.30;;
42964;SDS011;28604;51.204;22.552;2023-05-23T06:27:52;8.75;;;4.40;;
42964;SDS011;28604;51.204;22.552;2023-05-23T06:30:18;13.77;;;3.47;;
42964;SDS011;28604;51.204;22.552;2023-05-23T06:32:45;7.85;;;3.38;;
42964;SDS011;28604;51.204;22.552;2023-05-23T06:35:11;3.75;;;3.15;;
42964;SDS011;28604;51.204;22.552;2023-05-23T06:37:37;3.78;;;3.13;;
42964;SDS011;28604;51.204;22.552;2023-05-23T06:40:04;4.25;;;3.15;;
42964;SDS011;28604;51.204;22.552;2023-05-23T06:42:31;8.68;;;3.47;;
42964;SDS011;28604;51.204;22.552;2023-05-23T06:45:09;4.15;;;3.08;;
42964;SDS011;28604;51.204;22.552;2023-05-23T06:47:36;9.75;;;3.25;;
42964;SDS011;28604;51.204;22.552;2023-05-23T06:50:02;8.13;;;3.53;;
42964;SDS011;28604;51.204;22.552;2023-05-23T06:52:30;7.13;;;3.00;;
42964;SDS011;28604;51.204;22.552;2023-05-23T06:54:57;6.68;;;3.10;;
42964;SDS011;28604;51.204;22.552;2023-05-23T06:57:23;13.57;;;3.40;;
42964;SDS011;28604;51.204;22.552;2023-05-23T06:59:50;11.80;;;3.25;;
42964;SDS011;28604;51.204;22.552;2023-05-23T07:02:16;5.07;;;2.80;;
42964;SDS011;28604;51.204;22.552;2023-05-23T07:04:43;4.60;;;2.95;;
42964;SDS011;28604;51.204;22.552;2023-05-23T07:07:16;3.20;;;2.90;;
42964;SDS011;28604;51.204;22.552;2023-05-23T07:09:43;5.35;;;2.65;;
42964;SDS011;28604;51.204;22.552;2023-05-23T07:12:14;5.47;;;2.78;;
42964;SDS011;28604;51.204;22.552;2023-05-23T07:14:42;6.10;;;3.72;;
42964;SDS011;28604;51.204;22.552;2023-05-23T07:17:09;6.78;;;2.80;;
42964;SDS011;28604;51.204;22.552;2023-05-23T07:19:36;5.65;;;3.13;;
42964;SDS011;28604;51.204;22.552;2023-05-23T07:22:02;15.60;;;2.72;;
42964;SDS011;28604;51.204;22.552;2023-05-23T07:24:29;8.45;;;2.63;;
42964;SDS011;28604;51.204;22.552;2023-05-23T07:26:56;8.55;;;2.92;;
42964;SDS011;28604;51.204;22.552;2023-05-23T07:29:24;4.75;;;3.30;;
42964;SDS011;28604;51.204;22.552;2023-05-23T07:31:52;3.53;;;3.22;;
42964;SDS011;28604;51.204;22.552;2023-05-23T07:34:19;12.75;;;3.00;;
42964;SDS011;28604;51.204;22.552;2023-05-23T07:36:55;2.85;;;2.33;;
42964;SDS011;28604;51.204;22.552;2023-05-23T07:39:23;8.90;;;3.10;;
42964;SDS011;28604;51.204;22.552;2023-05-23T07:41:51;9.60;;;2.78;;
42964;SDS011;28604;51.204;22.552;2023-05-23T07:44:17;5.82;;;2.55;;
42964;SDS011;28604;51.204;22.552;2023-05-23T07:46:44;6.85;;;2.83;;
42964;SDS011;28604;51.204;22.552;2023-05-23T07:49:10;7.18;;;2.58;;
42964;SDS011;28604;51.204;22.552;2023-05-23T07:51:36;6.20;;;3.17;;
42964;SDS011;28604;51.204;22.552;2023-05-23T07:54:03;8.07;;;2.20;;
42964;SDS011;28604;51.204;22.552;2023-05-23T09:06:10;3.65;;;1.58;;
42964;SDS011;28604;51.204;22.552;2023-05-23T09:08:38;7.18;;;1.80;;
42964;SDS011;28604;51.204;22.552;2023-05-23T09:11:05;3.22;;;1.50;;
42964;SDS011;28604;51.204;22.552;2023-05-23T09:13:35;3.38;;;1.58;;
42964;SDS011;28604;51.204;22.552;2023-05-23T09:16:06;6.68;;;1.83;;
42964;SDS011;28604;51.204;22.552;2023-05-23T09:18:39;1.38;;;1.20;;
42964;SDS011;28604;51.204;22.552;2023-05-23T09:21:07;4.82;;;1.63;;
42964;SDS011;28604;51.204;22.552;2023-05-23T09:23:36;4.90;;;1.35;;
42964;SDS011;28604;51.204;22.552;2023-05-23T09:26:05;1.88;;;1.67;;
42964;SDS011;28604;51.204;22.552;2023-05-23T09:28:35;13.48;;;2.35;;
42964;SDS011;28604;51.204;22.552;2023-05-23T09:31:04;4.07;;;2.05;;
42964;SDS011;28604;51.204;22.552;2023-05-23T09:36:04;4.80;;;2.00;;
42964;SDS011;28604;51.204;22.552;2023-05-23T09:38:31;6.05;;;1.95;;
42964;SDS011;28604;51.204;22.552;2023-05-23T09:40:58;5.57;;;1.75;;
42964;SDS011;28604;51.204;22.552;2023-05-23T09:43:24;2.13;;;1.85;;
42964;SDS011;28604;51.204;22.552;2023-05-23T09:45:52;5.68;;;1.88;;
42964;SDS011;28604;51.204;22.552;2023-05-23T09:48:19;3.15;;;1.95;;
42964;SDS011;28604;51.204;22.552;2023-05-23T09:50:45;9.00;;;1.85;;
42964;SDS011;28604;51.204;22.552;2023-05-23T09:53:15;1.95;;;1.70;;
42964;SDS011;28604;51.204;22.552;2023-05-23T09:55:41;5.38;;;1.30;;
42964;SDS011;28604;51.204;22.552;2023-05-23T09:58:07;1.75;;;1.25;;
42964;SDS011;28604;51.204;22.552;2023-05-23T10:00:34;4.03;;;1.60;;
42964;SDS011;28604;51.204;22.552;2023-05-23T10:03:09;2.50;;;1.50;;
42964;SDS011;28604;51.204;22.552;2023-05-23T10:08:20;1.05;;;1.05;;
42964;SDS011;28604;51.204;22.552;2023-05-23T10:13:56;6.28;;;1.23;;
42964;SDS011;28604;51.204;22.552;2023-05-23T10:16:33;6.40;;;1.48;;
42964;SDS011;28604;51.204;22.552;2023-05-23T10:19:14;3.40;;;1.17;;
42964;SDS011;28604;51.204;22.552;2023-05-23T10:21:48;3.72;;;1.10;;
42964;SDS011;28604;51.204;22.552;2023-05-23T10:24:18;10.32;;;1.20;;
42964;SDS011;28604;51.204;22.552;2023-05-23T10:26:46;4.00;;;1.13;;
42964;SDS011;28604;51.204;22.552;2023-05-23T10:29:12;4.90;;;1.10;;
42964;SDS011;28604;51.204;22.552;2023-05-23T10:31:39;3.03;;;1.30;;
42964;SDS011;28604;51.204;22.552;2023-05-23T10:37:01;2.70;;;1.00;;
42964;SDS011;28604;51.204;22.552;2023-05-23T10:42:30;2.58;;;1.02;;
42964;SDS011;28604;51.204;22.552;2023-05-23T10:45:17;5.88;;;1.13;;
42964;SDS011;28604;51.204;22.552;2023-05-23T10:47:48;5.88;;;1.13;;
42964;SDS011;28604;51.204;22.552;2023-05-23T10:50:29;7.40;;;0.90;;
42964;SDS011;28604;51.204;22.552;2023-05-23T10:52:58;9.15;;;1.30;;
42964;SDS011;28604;51.204;22.552;2023-05-23T10:55:29;1.30;;;0.93;;
42964;SDS011;28604;51.204;22.552;2023-05-23T10:58:16;2.30;;;1.42;;
42964;SDS011;28604;51.204;22.552;2023-05-23T11:00:51;4.50;;;1.00;;
42964;SDS011;28604;51.204;22.552;2023-05-23T11:11:59;1.65;;;0.98;;
42964;SDS011;28604;51.204;22.552;2023-05-23T11:14:30;5.97;;;1.65;;
42964;SDS011;28604;51.204;22.552;2023-05-23T11:19:37;2.75;;;0.75;;
42964;SDS011;28604;51.204;22.552;2023-05-23T11:22:04;0.70;;;0.70;;
42964;SDS011;28604;51.204;22.552;2023-05-23T11:27:28;11.45;;;1.02;;
42964;SDS011;28604;51.204;22.552;2023-05-23T11:32:37;4.35;;;1.35;;
42964;SDS011;28604;51.204;22.552;2023-05-23T11:35:04;3.97;;;1.40;;
42964;SDS011;28604;51.204;22.552;2023-05-23T11:37:32;6.60;;;1.33;;
42964;SDS011;28604;51.204;22.552;2023-05-23T11:39:59;2.75;;;0.65;;
42964;SDS011;28604;51.204;22.552;2023-05-23T11:42:59;4.63;;;1.40;;
42964;SDS011;28604;51.204;22.552;2023-05-23T11:45:27;3.50;;;1.25;;
42964;SDS011;28604;51.204;22.552;2023-05-23T11:47:54;5.25;;;1.15;;
42964;SDS011;28604;51.204;22.552;2023-05-23T11:50:20;3.58;;;0.93;;
42964;SDS011;28604;51.204;22.552;2023-05-23T11:52:46;3.22;;;0.45;;
42964;SDS011;28604;51.204;22.552;2023-05-23T11:55:17;1.58;;;0.93;;
42964;SDS011;28604;51.204;22.552;2023-05-23T11:57:47;1.05;;;0.85;;
42964;SDS011;28604;51.204;22.552;2023-05-23T12:00:13;6.57;;;1.30;;
42964;SDS011;28604;51.204;22.552;2023-05-23T12:02:41;5.97;;;1.13;;
42964;SDS011;28604;51.204;22.552;2023-05-23T12:05:14;12.32;;;1.55;;
42964;SDS011;28604;51.204;22.552;2023-05-23T12:07:40;11.50;;;1.83;;
42964;SDS011;28604;51.204;22.552;2023-05-23T12:10:10;12.25;;;1.83;;
42964;SDS011;28604;51.204;22.552;2023-05-23T12:12:36;40.30;;;2.70;;
42964;SDS011;28604;51.204;22.552;2023-05-23T12:15:02;6.70;;;1.30;;
42964;SDS011;28604;51.204;22.552;2023-05-23T12:17:29;5.47;;;1.17;;
42964;SDS011;28604;51.204;22.552;2023-05-23T12:19:55;10.00;;;1.23;;
42964;SDS011;28604;51.204;22.552;2023-05-23T12:22:21;4.60;;;1.00;;
42964;SDS011;28604;51.204;22.552;2023-05-23T12:24:57;3.53;;;0.90;;
42964;SDS011;28604;51.204;22.552;2023-05-23T12:27:29;3.70;;;0.60;;
42964;SDS011;28604;51.204;22.552;2023-05-23T12:30:06;1.25;;;0.70;;
42964;SDS011;28604;51.204;22.552;2023-05-23T12:32:34;3.17;;;0.80;;
42964;SDS011;28604;51.204;22.552;2023-05-23T12:35:07;3.28;;;0.77;;
42964;SDS011;28604;51.204;22.552;2023-05-23T12:37:39;2.85;;;1.20;;
42964;SDS011;28604;51.204;22.552;2023-05-23T12:40:14;2.97;;;0.80;;
42964;SDS011;28604;51.204;22.552;2023-05-23T12:42:47;5.47;;;1.23;;
42964;SDS011;28604;51.204;22.552;2023-05-23T12:47:40;5.65;;;1.00;;
42964;SDS011;28604;51.204;22.552;2023-05-23T12:50:06;4.72;;;0.85;;
42964;SDS011;28604;51.204;22.552;2023-05-23T12:52:33;7.45;;;1.13;;
42964;SDS011;28604;51.204;22.552;2023-05-23T12:55:01;3.83;;;1.00;;
42964;SDS011;28604;51.204;22.552;2023-05-23T12:57:27;4.03;;;1.17;;
42964;SDS011;28604;51.204;22.552;2023-05-23T12:59:53;3.42;;;1.30;;
42964;SDS011;28604;51.204;22.552;2023-05-23T13:02:19;3.92;;;1.15;;
42964;SDS011;28604;51.204;22.552;2023-05-23T13:04:45;6.18;;;1.00;;
42964;SDS011;28604;51.204;22.552;2023-05-23T13:07:11;5.40;;;1.05;;
42964;SDS011;28604;51.204;22.552;2023-05-23T13:09:37;2.28;;;0.88;;
42964;SDS011;28604;51.204;22.552;2023-05-23T13:12:04;11.00;;;1.38;;
42964;SDS011;28604;51.204;22.552;2023-05-23T13:14:30;2.92;;;1.27;;
42964;SDS011;28604;51.204;22.552;2023-05-23T13:16:56;4.93;;;1.70;;
42964;SDS011;28604;51.204;22.552;2023-05-23T13:19:22;4.65;;;1.10;;
42964;SDS011;28604;51.204;22.552;2023-05-23T13:21:48;7.95;;;1.05;;
42964;SDS011;28604;51.204;22.552;2023-05-23T13:24:14;1.48;;;0.95;;
42964;SDS011;28604;51.204;22.552;2023-05-23T13:26:40;2.17;;;1.23;;
42964;SDS011;28604;51.204;22.552;2023-05-23T13:29:06;4.38;;;1.00;;
42964;SDS011;28604;51.204;22.552;2023-05-23T13:31:31;6.05;;;1.45;;
42964;SDS011;28604;51.204;22.552;2023-05-23T13:33:57;5.50;;;1.00;;
42964;SDS011;28604;51.204;22.552;2023-05-23T13:36:23;3.95;;;1.25;;
42964;SDS011;28604;51.204;22.552;2023-05-23T13:38:50;4.50;;;1.33;;
42964;SDS011;28604;51.204;22.552;2023-05-23T13:41:15;1.50;;;0.90;;
42964;SDS011;28604;51.204;22.552;2023-05-23T13:43:42;6.47;;;1.25;;
42964;SDS011;28604;51.204;22.552;2023-05-23T13:46:07;6.60;;;1.35;;
42964;SDS011;28604;51.204;22.552;2023-05-23T13:48:33;9.57;;;0.73;;
42964;SDS011;28604;51.204;22.552;2023-05-23T13:51:00;2.72;;;1.10;;
42964;SDS011;28604;51.204;22.552;2023-05-23T13:53:26;7.15;;;1.17;;
42964;SDS011;28604;51.204;22.552;2023-05-23T13:55:52;3.65;;;1.60;;
42964;SDS011;28604;51.204;22.552;2023-05-23T13:58:18;29.10;;;2.60;;
42964;SDS011;28604;51.204;22.552;2023-05-23T14:00:43;10.60;;;1.20;;
42964;SDS011;28604;51.204;22.552;2023-05-23T14:03:09;2.88;;;1.30;;
42964;SDS011;28604;51.204;22.552;2023-05-23T14:05:36;3.03;;;1.13;;
42964;SDS011;28604;51.204;22.552;2023-05-23T14:08:02;7.60;;;1.05;;
42964;SDS011;28604;51.204;22.552;2023-05-23T14:10:28;2.45;;;0.95;;
42964;SDS011;28604;51.204;22.552;2023-05-23T14:12:55;4.60;;;1.45;;
42964;SDS011;28604;51.204;22.552;2023-05-23T14:15:21;7.85;;;1.60;;
42964;SDS011;28604;51.204;22.552;2023-05-23T14:17:47;1.73;;;1.20;;
42964;SDS011;28604;51.204;22.552;2023-05-23T14:20:13;4.95;;;1.30;;
42964;SDS011;28604;51.204;22.552;2023-05-23T14:22:39;2.65;;;1.23;;
42964;SDS011;28604;51.204;22.552;2023-05-23T14:25:05;5.20;;;1.20;;
42964;SDS011;28604;51.204;22.552;2023-05-23T14:27:31;5.22;;;1.17;;
42964;SDS011;28604;51.204;22.552;2023-05-23T14:29:58;9.15;;;1.17;;
42964;SDS011;28604;51.204;22.552;2023-05-23T14:32:24;5.75;;;1.17;;
42964;SDS011;28604;51.204;22.552;2023-05-23T14:34:50;5.05;;;1.30;;
42964;SDS011;28604;51.204;22.552;2023-05-23T14:37:16;4.50;;;1.05;;
42964;SDS011;28604;51.204;22.552;2023-05-23T14:39:42;5.90;;;1.00;;
42964;SDS011;28604;51.204;22.552;2023-05-23T14:42:08;3.72;;;0.90;;
42964;SDS011;28604;51.204;22.552;2023-05-23T14:44:33;1.13;;;1.13;;
42964;SDS011;28604;51.204;22.552;2023-05-23T14:47:00;1.73;;;1.50;;
42964;SDS011;28604;51.204;22.552;2023-05-23T14:49:25;5.32;;;2.78;;
42964;SDS011;28604;51.204;22.552;2023-05-23T14:51:51;7.03;;;2.28;;
42964;SDS011;28604;51.204;22.552;2023-05-23T14:54:18;4.55;;;1.50;;
42964;SDS011;28604;51.204;22.552;2023-05-23T14:56:44;5.38;;;1.40;;
42964;SDS011;28604;51.204;22.552;2023-05-23T14:59:10;4.30;;;1.38;;
42964;SDS011;28604;51.204;22.552;2023-05-23T15:01:36;6.60;;;1.85;;
42964;SDS011;28604;51.204;22.552;2023-05-23T15:04:02;7.47;;;1.13;;
42964;SDS011;28604;51.204;22.552;2023-05-23T15:06:30;6.68;;;1.27;;
42964;SDS011;28604;51.204;22.552;2023-05-23T15:08:56;4.50;;;1.25;;
42964;SDS011;28604;51.204;22.552;2023-05-23T15:11:22;2.80;;;2.03;;
42964;SDS011;28604;51.204;22.552;2023-05-23T15:13:49;6.13;;;1.17;;
42964;SDS011;28604;51.204;22.552;2023-05-23T15:16:15;2.28;;;1.05;;
42964;SDS011;28604;51.204;22.552;2023-05-23T15:18:42;6.07;;;1.13;;
42964;SDS011;28604;51.204;22.552;2023-05-23T15:21:08;5.88;;;1.42;;
42964;SDS011;28604;51.204;22.552;2023-05-23T15:23:34;10.00;;;1.33;;
42964;SDS011;28604;51.204;22.552;2023-05-23T15:26:01;6.65;;;1.30;;
42964;SDS011;28604;51.204;22.552;2023-05-23T15:28:26;3.72;;;0.90;;
42964;SDS011;28604;51.204;22.552;2023-05-23T15:30:53;1.58;;;1.00;;
42964;SDS011;28604;51.204;22.552;2023-05-23T15:33:18;4.50;;;1.70;;
42964;SDS011;28604;51.204;22.552;2023-05-23T15:35:46;4.93;;;1.50;;
42964;SDS011;28604;51.204;22.552;2023-05-23T15:38:12;4.50;;;1.35;;
42964;SDS011;28604;51.204;22.552;2023-05-23T15:40:38;3.55;;;1.40;;
42964;SDS011;28604;51.204;22.552;2023-05-23T15:43:03;3.90;;;1.23;;
42964;SDS011;28604;51.204;22.552;2023-05-23T15:45:29;4.70;;;1.65;;
42964;SDS011;28604;51.204;22.552;2023-05-23T15:47:55;1.75;;;1.48;;
42964;SDS011;28604;51.204;22.552;2023-05-23T15:50:21;3.28;;;1.27;;
42964;SDS011;28604;51.204;22.552;2023-05-23T15:52:47;1.67;;;1.33;;
42964;SDS011;28604;51.204;22.552;2023-05-23T15:55:13;3.20;;;1.77;;
42964;SDS011;28604;51.204;22.552;2023-05-23T15:57:40;11.00;;;1.90;;
42964;SDS011;28604;51.204;22.552;2023-05-23T16:00:06;3.53;;;2.03;;
42964;SDS011;28604;51.204;22.552;2023-05-23T16:02:37;6.88;;;2.10;;
42964;SDS011;28604;51.204;22.552;2023-05-23T16:05:03;5.68;;;1.70;;
42964;SDS011;28604;51.204;22.552;2023-05-23T16:07:29;5.65;;;2.05;;
42964;SDS011;28604;51.204;22.552;2023-05-23T16:09:55;9.50;;;1.63;;
42964;SDS011;28604;51.204;22.552;2023-05-23T16:12:21;5.20;;;2.40;;
42964;SDS011;28604;51.204;22.552;2023-05-23T16:14:47;4.53;;;2.42;;
42964;SDS011;28604;51.204;22.552;2023-05-23T16:17:13;4.05;;;2.45;;
42964;SDS011;28604;51.204;22.552;2023-05-23T16:19:39;3.78;;;1.40;;
42964;SDS011;28604;51.204;22.552;2023-05-23T16:22:05;4.45;;;2.33;;